Time;durP1;ratioP1;P1;durP2;ratioP2;P2;SDS_P1;SDS_P2;PMS_P1;PMS_P2;Temp;Humidity;BMP_temperature;BMP_pressure;BME280_temperature;BME280_humidity;BME280_pressure;Samples;Min_cycle;Max_cycle;Signal;HPM_P1;HPM_P2
2021/08/29 00:02:11;;;;;;;11.80;7.60;;;16.30;71.10;;;;;;5012775;28;20040;-83
2021/08/29 00:04:37;;;;;;;9.60;6.75;;;16.30;71.10;;;;;;5013444;28;20025;-84
2021/08/29 00:07:03;;;;;;;11.07;7.20;;;16.20;71.10;;;;;;5013037;28;20125;-84
2021/08/29 00:09:28;;;;;;;12.65;8.00;;;16.20;71.30;;;;;;5013118;28;20026;-83
2021/08/29 00:11:55;;;;;;;14.65;8.07;;;16.20;71.60;;;;;;5009291;28;20066;-83
2021/08/29 00:14:21;;;;;;;17.48;7.15;;;16.20;71.80;;;;;;5008233;28;20495;-82
2021/08/29 00:16:46;;;;;;;11.68;7.07;;;16.20;71.70;;;;;;5012821;28;20030;-82
2021/08/29 00:19:12;;;;;;;11.68;6.82;;;16.20;71.50;;;;;;5011679;28;20018;-83
2021/08/29 00:21:38;;;;;;;11.20;7.13;;;16.10;71.60;;;;;;5006548;28;20511;-85
2021/08/29 00:24:04;;;;;;;12.93;6.47;;;16.10;71.70;;;;;;5010175;28;20057;-82
2021/08/29 00:26:30;;;;;;;10.65;7.30;;;16.00;71.80;;;;;;5012708;28;20033;-82
2021/08/29 00:28:56;;;;;;;9.02;6.82;;;16.00;72.00;;;;;;5013189;28;20021;-83
2021/08/29 00:31:22;;;;;;;9.95;6.90;;;16.00;72.00;;;;;;5016445;28;20021;-82
2021/08/29 00:33:48;;;;;;;11.15;6.78;;;16.00;72.00;;;;;;5020594;28;20108;-82
2021/08/29 00:36:14;;;;;;;11.70;7.97;;;16.00;72.00;;;;;;5011557;28;20034;-82
2021/08/29 00:38:40;;;;;;;9.95;7.07;;;16.00;72.20;;;;;;5007451;28;20030;-84
2021/08/29 00:41:08;;;;;;;10.95;7.65;;;16.00;72.00;;;;;;5012648;28;20443;-83
2021/08/29 00:43:35;;;;;;;8.07;6.65;;;16.10;71.80;;;;;;5012498;28;20049;-82
2021/08/29 00:46:01;;;;;;;13.50;7.78;;;16.10;71.70;;;;;;5012201;28;20053;-83
2021/08/29 00:48:27;;;;;;;10.40;6.47;;;16.10;71.80;;;;;;5013173;28;20050;-83
2021/08/29 00:50:53;;;;;;;9.38;6.85;;;16.10;71.70;;;;;;5000554;28;20027;-83
2021/08/29 00:53:20;;;;;;;10.60;7.05;;;16.20;71.60;;;;;;5011811;28;20395;-84
2021/08/29 00:55:47;;;;;;;11.52;7.43;;;16.20;71.70;;;;;;5012590;28;20026;-84
2021/08/29 00:58:13;;;;;;;11.30;7.78;;;16.30;71.40;;;;;;5012687;28;20030;-83
2021/08/29 01:00:45;;;;;;;13.00;8.32;;;16.30;71.10;;;;;;5013292;28;20033;-86
2021/08/29 01:03:23;;;;;;;12.00;8.43;;;16.30;70.90;;;;;;5011896;28;20034;-85
2021/08/29 01:06:06;;;;;;;12.63;7.82;;;16.30;70.90;;;;;;5014824;28;20018;-85
2021/08/29 01:08:37;;;;;;;11.75;8.02;;;16.30;71.00;;;;;;5014352;28;20018;-87
2021/08/29 01:11:15;;;;;;;12.65;9.00;;;16.30;70.90;;;;;;5015894;28;20028;-85
2021/08/29 01:13:49;;;;;;;11.35;8.57;;;16.30;70.80;;;;;;5014588;28;20022;-84
2021/08/29 01:16:18;;;;;;;13.30;9.05;;;16.20;70.80;;;;;;5012619;28;20014;-86
2021/08/29 01:18:49;;;;;;;14.70;10.13;;;16.30;70.90;;;;;;5013284;28;20461;-86
2021/08/29 01:21:25;;;;;;;11.35;8.43;;;16.20;70.80;;;;;;5011452;28;20101;-86
2021/08/29 01:23:56;;;;;;;11.65;9.13;;;16.20;70.90;;;;;;5011897;28;20029;-86
2021/08/29 01:26:32;;;;;;;14.35;10.07;;;16.30;71.00;;;;;;5011718;28;20022;-86
2021/08/29 01:29:05;;;;;;;11.00;9.80;;;16.30;70.80;;;;;;5013311;28;20018;-86
2021/08/29 01:31:34;;;;;;;14.30;10.48;;;16.30;70.80;;;;;;5013886;28;20306;-86
2021/08/29 01:34:03;;;;;;;16.00;10.95;;;16.30;70.60;;;;;;5020267;28;20057;-85
2021/08/29 01:36:31;;;;;;;15.20;9.63;;;16.40;70.50;;;;;;5013540;28;20430;-85
2021/08/29 01:38:59;;;;;;;13.18;9.43;;;16.40;70.20;;;;;;5010253;28;20038;-85
2021/08/29 01:41:25;;;;;;;;;;;16.40;70.30;;;;;;5018415;28;20046;-85
2021/08/29 01:43:52;;;;;;;17.52;10.32;;;16.40;70.20;;;;;;5016056;28;20371;-85
2021/08/29 01:46:19;;;;;;;12.38;9.80;;;16.30;70.30;;;;;;5005481;28;20060;-85
2021/08/29 01:48:46;;;;;;;17.17;10.50;;;16.40;70.40;;;;;;5005094;28;20025;-84
2021/08/29 01:51:12;;;;;;;15.63;11.68;;;16.30;70.30;;;;;;5017488;28;20044;-86
2021/08/29 01:53:39;;;;;;;16.38;10.50;;;16.40;70.20;;;;;;5019032;28;20050;-85
2021/08/29 01:56:06;;;;;;;15.95;10.45;;;16.40;70.30;;;;;;5019753;28;20475;-85
2021/08/29 01:58:33;;;;;;;13.50;11.20;;;16.40;70.20;;;;;;5030257;28;20651;-85
2021/08/29 02:01:01;;;;;;;18.98;11.93;;;16.40;70.20;;;;;;5038180;28;20026;-85
2021/08/29 02:03:29;;;;;;;14.35;10.80;;;16.40;70.40;;;;;;5017147;28;20120;-84
2021/08/29 02:06:06;;;;;;;;;;;16.40;70.50;;;;;;5014976;28;20494;-84
2021/08/29 02:08:36;;;;;;;16.45;11.10;;;16.30;70.10;;;;;;5015691;28;20403;-85
2021/08/29 02:11:02;;;;;;;16.73;11.43;;;16.20;70.50;;;;;;5015542;28;20109;-86
2021/08/29 02:13:30;;;;;;;18.13;12.00;;;16.20;71.00;;;;;;5015489;28;20521;-83
2021/08/29 02:16:09;;;;;;;14.55;11.68;;;16.20;70.80;;;;;;5015436;28;20024;-85
2021/08/29 02:18:36;;;;;;;15.45;10.98;;;16.20;71.00;;;;;;5015497;28;20022;-84
2021/08/29 02:21:04;;;;;;;18.98;11.43;;;16.30;71.40;;;;;;5015231;28;20021;-84
2021/08/29 02:23:30;;;;;;;15.60;10.90;;;16.30;70.80;;;;;;5015257;28;20037;-83
2021/08/29 02:25:57;;;;;;;17.02;10.55;;;16.30;70.60;;;;;;5015181;28;20052;-83
2021/08/29 02:28:24;;;;;;;19.75;10.85;;;16.30;71.20;;;;;;5015549;28;20430;-85
2021/08/29 02:30:50;;;;;;;;;;;16.30;70.70;;;;;;5015469;28;20022;-84
2021/08/29 02:33:16;;;;;;;19.42;11.50;;;16.30;70.40;;;;;;5015203;28;19912;-84
2021/08/29 02:35:43;;;;;;;13.50;10.68;;;16.30;71.00;;;;;;5013703;28;20383;-86
2021/08/29 02:38:09;;;;;;;13.90;11.20;;;16.30;71.10;;;;;;5015625;28;20018;-86
2021/08/29 02:40:39;;;;;;;16.75;11.60;;;16.30;71.00;;;;;;5015109;28;20384;-84
2021/08/29 02:43:06;;;;;;;15.23;10.65;;;16.30;70.70;;;;;;5013455;28;20403;-84
2021/08/29 02:45:35;;;;;;;15.05;10.40;;;16.30;70.90;;;;;;5014911;28;20028;-86
2021/08/29 02:48:02;;;;;;;17.55;12.20;;;16.20;71.10;;;;;;5013476;28;20022;-85
2021/08/29 02:50:29;;;;;;;18.70;11.45;;;16.10;71.10;;;;;;5013872;28;20034;-85
2021/08/29 02:52:55;;;;;;;15.10;11.20;;;16.00;71.20;;;;;;5014485;28;20030;-85
2021/08/29 02:55:22;;;;;;;16.13;11.80;;;15.90;71.50;;;;;;5014638;28;20022;-83
2021/08/29 02:57:56;;;;;;;16.85;10.40;;;15.90;72.00;;;;;;5013187;28;20030;-86
2021/08/29 03:00:22;;;;;;;14.50;10.48;;;15.80;72.20;;;;;;5000327;28;20053;-86
2021/08/29 03:02:48;;;;;;;20.88;11.57;;;15.80;72.60;;;;;;5014340;28;20034;-84
2021/08/29 03:05:14;;;;;;;13.50;10.75;;;15.80;72.60;;;;;;5013320;28;20033;-86
2021/08/29 03:07:40;;;;;;;19.08;10.88;;;15.70;72.50;;;;;;5014506;28;20049;-85
2021/08/29 03:10:06;;;;;;;16.75;11.02;;;15.70;72.90;;;;;;5014311;28;20021;-84
2021/08/29 03:12:32;;;;;;;13.82;10.95;;;15.70;73.40;;;;;;5016211;28;20026;-84
2021/08/29 03:14:59;;;;;;;15.18;11.20;;;15.60;73.60;;;;;;5014850;28;20079;-84
2021/08/29 03:17:25;;;;;;;21.35;12.13;;;15.60;73.80;;;;;;5014597;28;20018;-83
2021/08/29 03:19:51;;;;;;;16.98;11.13;;;15.70;74.20;;;;;;5015647;28;20022;-83
2021/08/29 03:22:17;;;;;;;16.88;11.32;;;15.60;74.10;;;;;;5022190;28;20034;-84
2021/08/29 03:24:44;;;;;;;16.15;11.27;;;15.70;74.30;;;;;;5017131;28;20030;-85
2021/08/29 03:27:10;;;;;;;18.98;11.52;;;15.70;74.00;;;;;;5014550;28;20364;-84
2021/08/29 03:29:36;;;;;;;15.68;10.63;;;15.80;74.00;;;;;;5012653;28;20021;-86
2021/08/29 03:32:03;;;;;;;17.10;11.60;;;15.80;73.60;;;;;;5014024;28;20030;-86
2021/08/29 03:34:30;;;;;;;17.63;10.93;;;15.80;73.40;;;;;;5009983;28;20030;-83
2021/08/29 03:36:57;;;;;;;13.32;10.23;;;15.90;73.30;;;;;;5006625;28;20026;-85
2021/08/29 03:39:26;;;;;;;16.73;11.48;;;15.90;73.20;;;;;;5014263;28;20499;-85
2021/08/29 03:41:56;;;;;;;24.73;12.48;;;16.00;73.10;;;;;;5013959;28;20034;-84
2021/08/29 03:44:22;;;;;;;17.35;11.15;;;16.10;73.00;;;;;;5013537;28;20048;-84
2021/08/29 03:46:48;;;;;;;19.20;10.88;;;16.10;73.10;;;;;;5013733;28;20101;-85
2021/08/29 03:49:14;;;;;;;18.10;11.68;;;16.10;73.00;;;;;;5013736;28;20022;-85
2021/08/29 03:51:43;;;;;;;24.50;12.02;;;16.20;73.10;;;;;;5013665;28;20022;-85
2021/08/29 03:54:13;;;;;;;15.23;11.98;;;16.20;73.10;;;;;;5013802;28;20033;-87
2021/08/29 03:56:39;;;;;;;14.93;11.95;;;16.30;73.20;;;;;;5013781;28;20030;-86
2021/08/29 03:59:05;;;;;;;23.27;12.75;;;16.40;72.80;;;;;;5013914;28;20104;-85
2021/08/29 04:01:31;;;;;;;22.40;13.90;;;16.50;72.40;;;;;;5014266;28;20419;-86
2021/08/29 04:03:58;;;;;;;18.55;13.18;;;16.60;72.40;;;;;;5013561;28;20041;-86
2021/08/29 04:06:31;;;;;;;17.45;13.18;;;16.70;71.90;;;;;;5014982;28;20040;-88
2021/08/29 04:09:02;;;;;;;20.35;11.98;;;16.90;71.80;;;;;;5020578;28;20029;-87
2021/08/29 04:11:32;;;;;;;22.50;12.40;;;17.00;71.60;;;;;;5028276;28;20057;-86
2021/08/29 04:13:58;;;;;;;13.00;10.93;;;17.00;71.30;;;;;;5020892;28;20079;-87
2021/08/29 04:16:25;;;;;;;16.50;11.50;;;17.10;71.10;;;;;;5016852;28;20066;-87
2021/08/29 04:18:52;;;;;;;19.88;12.38;;;17.30;70.60;;;;;;5015058;28;20029;-86
2021/08/29 04:21:26;;;;;;;12.75;10.82;;;17.40;70.10;;;;;;5015175;28;20033;-84
2021/08/29 04:23:52;;;;;;;16.00;12.70;;;17.50;69.70;;;;;;5013457;28;20034;-86
2021/08/29 04:26:18;;;;;;;17.35;11.93;;;17.60;69.70;;;;;;5018199;28;20018;-88
2021/08/29 04:28:44;;;;;;;15.80;11.35;;;17.70;69.70;;;;;;5013595;28;20030;-87
2021/08/29 04:31:14;;;;;;;16.70;11.30;;;17.80;69.20;;;;;;5013372;28;20018;-87
2021/08/29 04:33:40;;;;;;;15.48;11.23;;;18.00;68.40;;;;;;5005832;28;20014;-89
2021/08/29 04:36:09;;;;;;;18.45;13.15;;;18.20;68.30;;;;;;5009103;28;20021;-88
2021/08/29 04:38:37;;;;;;;13.40;12.00;;;18.60;66.90;;;;;;5014441;28;20022;-88
2021/08/29 04:41:03;;;;;;;13.35;11.82;;;18.90;65.40;;;;;;5014530;28;20026;-88
2021/08/29 04:43:28;;;;;;;15.93;13.05;;;19.20;64.60;;;;;;5014117;28;20092;-86
2021/08/29 04:45:54;;;;;;;18.05;12.93;;;19.60;63.30;;;;;;5013875;28;20479;-86
2021/08/29 04:48:20;;;;;;;14.13;12.43;;;20.20;61.90;;;;;;5012921;28;20026;-88
2021/08/29 04:50:46;;;;;;;14.43;10.82;;;20.70;60.40;;;;;;5012293;28;20025;-86
2021/08/29 04:53:12;;;;;;;19.92;11.85;;;21.20;58.90;;;;;;5013868;28;20028;-88
2021/08/29 04:55:37;;;;;;;15.63;11.63;;;21.60;57.90;;;;;;5013183;28;20021;-88
2021/08/29 04:58:03;;;;;;;20.35;12.15;;;22.20;56.20;;;;;;5011615;28;20083;-86
2021/08/29 05:00:29;;;;;;;13.43;10.30;;;22.90;54.70;;;;;;5012230;28;20046;-86
2021/08/29 05:02:55;;;;;;;19.35;11.93;;;23.50;53.30;;;;;;5013111;28;20491;-85
2021/08/29 05:05:21;;;;;;;15.63;11.35;;;23.50;51.70;;;;;;5013430;28;20025;-88
2021/08/29 05:07:46;;;;;;;19.45;11.13;;;23.20;52.10;;;;;;5013261;28;20087;-86
2021/08/29 05:10:12;;;;;;;15.25;11.80;;;22.70;53.10;;;;;;5012409;28;20022;-85
2021/08/29 05:12:38;;;;;;;16.95;11.43;;;22.40;54.10;;;;;;5015291;28;20113;-85
2021/08/29 05:15:05;;;;;;;17.55;11.77;;;22.10;54.50;;;;;;5016690;28;20048;-87
2021/08/29 05:17:31;;;;;;;14.47;11.37;;;22.50;54.60;;;;;;4999854;28;20088;-86
2021/08/29 05:19:57;;;;;;;18.58;12.00;;;22.90;53.30;;;;;;5016470;28;20483;-84
2021/08/29 05:22:23;;;;;;;23.60;13.00;;;22.80;53.00;;;;;;5003761;28;20041;-85
2021/08/29 05:24:49;;;;;;;13.98;11.70;;;22.60;53.70;;;;;;5016609;28;20097;-84
2021/08/29 05:27:15;;;;;;;15.60;12.05;;;22.60;53.60;;;;;;5016065;28;20444;-84
2021/08/29 05:29:40;;;;;;;16.80;11.75;;;22.30;54.30;;;;;;5016168;28;20129;-85
2021/08/29 05:32:07;;;;;;;17.75;12.30;;;22.50;54.30;;;;;;5010416;28;20023;-84
2021/08/29 05:34:33;;;;;;;17.50;11.98;;;23.00;53.20;;;;;;5016002;28;20025;-85
2021/08/29 05:36:58;;;;;;;16.73;11.52;;;23.40;52.70;;;;;;5016394;28;20041;-84
2021/08/29 05:39:24;;;;;;;19.05;11.70;;;24.20;51.40;;;;;;5017136;28;20062;-84
2021/08/29 05:41:50;;;;;;;19.27;11.52;;;24.50;50.10;;;;;;5017459;28;20038;-86
2021/08/29 05:44:16;;;;;;;12.93;11.02;;;25.30;49.20;;;;;;5016145;28;20041;-87
2021/08/29 05:46:42;;;;;;;16.42;11.90;;;26.10;47.60;;;;;;5016553;28;20022;-85
2021/08/29 05:49:07;;;;;;;14.60;11.18;;;26.40;45.90;;;;;;5015320;28;20029;-85
2021/08/29 05:51:33;;;;;;;18.92;12.10;;;25.50;46.30;;;;;;5014481;28;20037;-86
2021/08/29 05:53:59;;;;;;;16.92;12.00;;;24.50;48.20;;;;;;5014597;28;20026;-85
2021/08/29 05:56:25;;;;;;;15.07;11.85;;;24.50;49.30;;;;;;5017075;28;20109;-85
2021/08/29 05:58:51;;;;;;;17.92;11.68;;;25.00;48.60;;;;;;5015676;28;20037;-87
2021/08/29 06:01:17;;;;;;;15.73;11.85;;;26.00;47.50;;;;;;5014140;28;20037;-85
2021/08/29 06:03:43;;;;;;;17.30;11.75;;;26.90;46.00;;;;;;5016019;28;20498;-86
2021/08/29 06:06:09;;;;;;;14.80;10.93;;;28.00;44.40;;;;;;5015905;28;20022;-87
2021/08/29 06:08:35;;;;;;;28.33;16.58;;;;;;;;;;5014513;28;20014;-85
2021/08/29 06:11:01;;;;;;;19.00;12.77;;;28.90;43.30;;;;;;5015821;28;20084;-86
2021/08/29 06:13:26;;;;;;;17.85;11.52;;;30.40;41.20;;;;;;5028471;28;20021;-83
2021/08/29 06:15:52;;;;;;;12.50;10.65;;;30.90;39.80;;;;;;5019565;28;20428;-84
2021/08/29 06:18:18;;;;;;;16.00;10.83;;;31.30;38.60;;;;;;5024996;28;20029;-85
2021/08/29 06:20:44;;;;;;;17.75;11.00;;;31.10;38.70;;;;;;5016370;28;20014;-86
2021/08/29 06:23:10;;;;;;;19.58;11.75;;;30.80;38.50;;;;;;5017033;28;20042;-85
2021/08/29 06:25:37;;;;;;;20.30;11.23;;;30.80;39.20;;;;;;5021269;28;20018;-85
2021/08/29 06:28:03;;;;;;;12.75;9.63;;;30.60;38.80;;;;;;5034398;28;20026;-86
2021/08/29 06:30:29;;;;;;;13.03;10.33;;;31.00;38.80;;;;;;5026008;28;20431;-85
2021/08/29 06:32:55;;;;;;;16.40;10.68;;;31.60;38.60;;;;;;5013300;28;20034;-84
2021/08/29 06:35:21;;;;;;;11.40;9.67;;;32.50;38.10;;;;;;5015328;28;20018;-86
2021/08/29 06:37:47;;;;;;;17.33;10.68;;;32.80;36.80;;;;;;5013883;28;20463;-84
2021/08/29 06:40:13;;;;;;;13.40;10.50;;;33.30;36.60;;;;;;5015124;28;20050;-85
2021/08/29 06:42:41;;;;;;;20.27;11.82;;;33.80;35.90;;;;;;5014923;28;20111;-87
2021/08/29 06:45:08;;;;;;;16.65;11.52;;;34.00;35.40;;;;;;5014987;28;20375;-86
2021/08/29 06:47:34;;;;;;;16.92;10.02;;;34.10;35.00;;;;;;5014995;28;20024;-86
2021/08/29 06:50:00;;;;;;;13.50;11.00;;;34.20;35.10;;;;;;5014886;28;20375;-86
2021/08/29 06:52:26;;;;;;;13.90;10.23;;;34.60;34.50;;;;;;5014819;28;20455;-84
2021/08/29 06:54:52;;;;;;;15.73;10.83;;;35.00;34.30;;;;;;5014550;28;20022;-85
2021/08/29 06:57:17;;;;;;;17.67;11.57;;;34.90;33.90;;;;;;5013540;28;20025;-86
2021/08/29 06:59:43;;;;;;;17.13;11.57;;;35.20;33.30;;;;;;5014328;28;20069;-86
2021/08/29 07:02:09;;;;;;;15.40;10.23;;;34.40;33.90;;;;;;5014551;28;20037;-87
2021/08/29 07:04:35;;;;;;;14.50;11.17;;;32.90;34.70;;;;;;5014658;28;20050;-88
2021/08/29 07:07:01;;;;;;;13.87;11.30;;;31.60;36.60;;;;;;5013266;28;20546;-87
2021/08/29 07:09:27;;;;;;;20.25;13.23;;;31.10;37.60;;;;;;5014589;28;20018;-86
2021/08/29 07:11:53;;;;;;;18.17;12.55;;;30.50;38.20;;;;;;5018006;28;20120;-87
2021/08/29 07:14:18;;;;;;;16.60;11.43;;;29.50;39.10;;;;;;5015795;28;20105;-86
2021/08/29 07:16:44;;;;;;;21.10;12.27;;;28.00;41.00;;;;;;5014317;28;20466;-85
2021/08/29 07:19:10;;;;;;;18.77;11.85;;;26.80;43.70;;;;;;5014371;28;20073;-84
2021/08/29 07:21:36;;;;;;;20.13;12.82;;;26.00;45.10;;;;;;5014907;28;20395;-86
2021/08/29 07:24:01;;;;;;;23.20;12.52;;;25.40;46.40;;;;;;5014677;28;20030;-85
2021/08/29 07:26:27;;;;;;;20.35;11.93;;;25.90;46.10;;;;;;5014276;28;20022;-85
2021/08/29 07:28:53;;;;;;;17.80;12.00;;;26.50;45.60;;;;;;5011135;28;20027;-85
2021/08/29 07:31:19;;;;;;;17.45;11.05;;;26.60;45.10;;;;;;5013671;28;20038;-87
2021/08/29 07:33:45;;;;;;;16.65;10.90;;;26.80;45.60;;;;;;5012767;28;20504;-88
2021/08/29 07:36:10;;;;;;;19.45;11.30;;;27.80;44.80;;;;;;5012848;28;20055;-85
2021/08/29 07:38:36;;;;;;;21.67;11.23;;;29.40;42.80;;;;;;5014692;28;20397;-84
2021/08/29 07:41:02;;;;;;;19.97;11.50;;;30.90;40.50;;;;;;5016310;28;20074;-86
2021/08/29 07:43:28;;;;;;;16.37;10.87;;;32.30;38.40;;;;;;5018301;28;20042;-84
2021/08/29 07:46:03;;;;;;;18.50;10.37;;;33.20;36.90;;;;;;5019497;28;20022;-85
2021/08/29 07:48:29;;;;;;;15.45;11.38;;;34.00;35.90;;;;;;5010262;28;20026;-86
2021/08/29 07:50:55;;;;;;;17.30;10.90;;;34.80;35.10;;;;;;5016923;28;20112;-88
2021/08/29 07:53:20;;;;;;;14.97;10.57;;;35.60;34.20;;;;;;5017233;28;20026;-92
2021/08/29 07:55:46;;;;;;;17.33;10.80;;;35.90;33.70;;;;;;5015916;28;20040;-88
2021/08/29 07:58:12;;;;;;;15.67;10.93;;;36.40;33.20;;;;;;5009502;28;20101;-90
2021/08/29 08:00:38;;;;;;;18.45;10.10;;;36.80;32.80;;;;;;5013133;28;20422;-90
2021/08/29 08:03:04;;;;;;;16.40;11.55;;;36.90;32.70;;;;;;5003363;28;20034;-88
2021/08/29 08:05:30;;;;;;;18.70;10.90;;;37.10;32.10;;;;;;5023673;28;20018;-88
2021/08/29 08:07:55;;;;;;;21.02;10.88;;;37.00;32.60;;;;;;5013841;28;20274;-85
2021/08/29 08:10:23;;;;;;;17.00;10.88;;;37.00;32.40;;;;;;5014573;28;20125;-85
2021/08/29 08:12:49;;;;;;;15.13;11.30;;;37.30;32.10;;;;;;5014958;28;20037;-88
2021/08/29 08:15:15;;;;;;;18.10;10.82;;;37.20;32.00;;;;;;5020400;28;20022;-88
2021/08/29 08:17:41;;;;;;;15.10;9.45;;;37.30;32.30;;;;;;5020739;28;20049;-87
2021/08/29 08:20:08;;;;;;;17.27;10.02;;;37.50;32.00;;;;;;5020169;28;20077;-84
2021/08/29 08:22:34;;;;;;;16.60;9.95;;;37.80;32.20;;;;;;5017187;28;20053;-86
2021/08/29 08:25:00;;;;;;;22.00;11.23;;;38.10;31.60;;;;;;5021397;28;20030;-89
2021/08/29 08:27:26;;;;;;;12.68;8.73;;;38.10;31.40;;;;;;5018073;28;20037;-87
2021/08/29 08:29:52;;;;;;;13.90;9.25;;;38.20;31.60;;;;;;5014215;28;20022;-89
2021/08/29 08:32:17;;;;;;;14.77;9.68;;;38.40;31.30;;;;;;5016494;28;20507;-88
2021/08/29 08:34:43;;;;;;;15.75;11.05;;;38.60;31.70;;;;;;5012806;28;20030;-90
2021/08/29 08:37:09;;;;;;;18.20;10.30;;;38.90;30.80;;;;;;5014344;28;20386;-89
2021/08/29 08:39:35;;;;;;;18.38;10.30;;;38.70;30.70;;;;;;5017567;28;20399;-89
2021/08/29 08:42:01;;;;;;;17.73;11.05;;;38.80;30.80;;;;;;5031223;28;20052;-88
2021/08/29 08:44:27;;;;;;;18.20;10.43;;;38.70;30.80;;;;;;5036461;28;20081;-88
2021/08/29 08:46:56;;;;;;;17.88;10.57;;;38.50;31.30;;;;;;5025947;28;20463;-89
2021/08/29 08:49:26;;;;;;;18.20;9.43;;;38.50;31.30;;;;;;5014364;28;20064;-88
2021/08/29 08:51:55;;;;;;;15.65;9.75;;;38.20;31.20;;;;;;5015523;28;20059;-87
2021/08/29 08:54:23;;;;;;;15.52;10.15;;;37.70;31.80;;;;;;5013932;28;20018;-90
2021/08/29 08:56:51;;;;;;;20.63;9.32;;;37.30;32.10;;;;;;5013412;28;20037;-88
2021/08/29 08:59:17;;;;;;;17.60;9.93;;;37.30;32.40;;;;;;5014893;28;20029;-88
2021/08/29 09:01:44;;;;;;;19.05;10.27;;;37.40;32.40;;;;;;5022886;28;20107;-86
2021/08/29 09:04:10;;;;;;;;;;;36.90;32.20;;;;;;5027741;28;20026;-89
2021/08/29 09:06:36;;;;;;;19.08;11.07;;;36.50;33.50;;;;;;5016618;28;19905;-91
2021/08/29 09:09:03;;;;;;;14.02;10.00;;;37.00;33.20;;;;;;5012253;28;20040;-89
2021/08/29 09:11:36;;;;;;;18.35;10.35;;;37.50;32.50;;;;;;5012472;28;20185;-88
2021/08/29 09:14:03;;;;;;;16.90;10.30;;;37.40;32.30;;;;;;5000667;28;20399;-86
2021/08/29 09:16:29;;;;;;;21.70;12.18;;;37.30;32.30;;;;;;5013818;28;20117;-88
2021/08/29 09:19:00;;;;;;;17.60;10.45;;;36.90;32.60;;;;;;5012465;28;20022;-87
2021/08/29 09:21:48;;;;;;;14.90;9.10;;;36.80;32.70;;;;;;5013673;28;20040;-89
2021/08/29 09:24:15;;;;;;;19.42;10.80;;;36.90;32.80;;;;;;5018751;28;20037;-87
2021/08/29 09:26:43;;;;;;;27.70;12.77;;;37.00;32.90;;;;;;5005806;28;20022;-88
2021/08/29 09:29:23;;;;;;;19.25;13.23;;;37.30;33.00;;;;;;5011129;28;20029;-89
2021/08/29 09:31:50;;;;;;;17.73;9.90;;;37.30;32.50;;;;;;5014841;28;20080;-88
2021/08/29 09:34:23;;;;;;;15.70;9.80;;;36.80;32.50;;;;;;5014399;28;20395;-88
2021/08/29 09:36:58;;;;;;;13.70;10.10;;;36.80;32.60;;;;;;5015898;28;20026;-87
2021/08/29 09:39:24;;;;;;;20.20;10.52;;;36.10;33.10;;;;;;5011817;28;20093;-86
2021/08/29 09:42:00;;;;;;;16.77;9.43;;;35.60;34.30;;;;;;5014754;28;20129;-87
2021/08/29 09:44:33;;;;;;;14.50;9.73;;;35.40;34.40;;;;;;5013277;28;20560;-87
2021/08/29 09:47:02;;;;;;;16.27;10.15;;;34.90;34.90;;;;;;5015814;28;20037;-88
2021/08/29 09:49:33;;;;;;;14.80;10.80;;;35.10;35.00;;;;;;5016267;28;20023;-87
2021/08/29 09:52:02;;;;;;;12.85;8.70;;;35.90;34.40;;;;;;5013767;28;20411;-87
2021/08/29 09:54:37;;;;;;;18.60;9.85;;;35.90;34.10;;;;;;5014356;28;20022;-86
2021/08/29 09:57:13;;;;;;;15.20;9.60;;;35.80;34.20;;;;;;5014695;28;20041;-89
2021/08/29 09:59:47;;;;;;;21.77;10.13;;;35.40;34.60;;;;;;5016331;28;20033;-87
2021/08/29 10:02:22;;;;;;;17.13;9.68;;;34.80;35.30;;;;;;5016271;28;20291;-88
2021/08/29 10:04:48;;;;;;;15.90;9.80;;;34.80;36.00;;;;;;5016595;28;20483;-88
2021/08/29 10:07:18;;;;;;;17.23;9.10;;;35.40;35.70;;;;;;5016374;28;20054;-87
2021/08/29 10:09:46;;;;;;;12.05;9.52;;;35.90;34.90;;;;;;5019323;28;20121;-87
2021/08/29 10:12:12;;;;;;;23.40;9.57;;;35.40;34.50;;;;;;5017417;28;20022;-88
2021/08/29 10:14:40;;;;;;;12.35;9.15;;;34.40;35.70;;;;;;5016667;28;20109;-87
2021/08/29 10:17:07;;;;;;;10.32;8.88;;;33.60;36.80;;;;;;5016265;28;20041;-87
2021/08/29 10:19:33;;;;;;;;;;;32.60;38.00;;;;;;5016804;28;20101;-87
2021/08/29 10:22:00;;;;;;;16.75;10.15;;;31.80;38.10;;;;;;5016081;28;19914;-87
2021/08/29 10:24:31;;;;;;;14.27;10.60;;;30.90;40.90;;;;;;5014835;28;20080;-85
2021/08/29 10:27:14;;;;;;;25.05;11.30;;;30.10;42.30;;;;;;5013226;28;20029;-86
2021/08/29 10:29:47;;;;;;;22.45;11.27;;;29.50;43.10;;;;;;5016591;28;20049;-86
2021/08/29 10:32:29;;;;;;;20.08;11.38;;;29.10;44.10;;;;;;5016934;28;20430;-86
2021/08/29 10:34:56;;;;;;;18.23;10.02;;;28.90;45.10;;;;;;5003512;28;20025;-86
2021/08/29 10:37:23;;;;;;;14.10;10.82;;;28.70;45.50;;;;;;5014361;28;20033;-82
2021/08/29 10:39:50;;;;;;;16.33;10.53;;;28.70;45.50;;;;;;5015440;28;20033;-84
2021/08/29 10:42:17;;;;;;;;;;;28.70;45.60;;;;;;5018543;28;20038;-87
2021/08/29 10:44:44;;;;;;;15.13;10.35;;;28.90;44.80;;;;;;5011423;28;19910;-83
2021/08/29 10:47:10;;;;;;;13.20;10.80;;;29.00;45.40;;;;;;5007511;28;20391;-82
2021/08/29 10:49:36;;;;;;;21.13;10.73;;;28.70;45.10;;;;;;5009472;28;20559;-81
2021/08/29 10:52:04;;;;;;;16.65;10.18;;;28.40;46.20;;;;;;5010430;28;20499;-82
2021/08/29 10:54:30;;;;;;;19.63;10.18;;;28.40;46.50;;;;;;5014242;28;20026;-82
2021/08/29 10:56:56;;;;;;;15.90;10.43;;;28.40;46.50;;;;;;5019235;28;20026;-85
2021/08/29 10:59:24;;;;;;;13.02;9.68;;;28.40;46.70;;;;;;5012896;28;20028;-82
2021/08/29 11:01:52;;;;;;;13.15;9.63;;;27.90;47.20;;;;;;5033769;28;20034;-83
2021/08/29 11:04:21;;;;;;;14.77;10.45;;;27.50;48.30;;;;;;5022451;28;20067;-82
2021/08/29 11:06:57;;;;;;;17.27;9.90;;;27.20;49.00;;;;;;5016098;28;20553;-83
2021/08/29 11:09:32;;;;;;;14.20;10.25;;;27.10;49.50;;;;;;5013908;28;20184;-82
2021/08/29 11:12:00;;;;;;;16.80;9.93;;;27.00;49.90;;;;;;5015430;28;20030;-81
2021/08/29 11:14:44;;;;;;;17.27;10.52;;;27.00;50.20;;;;;;5014220;28;20014;-83
2021/08/29 11:17:18;;;;;;;13.60;10.35;;;26.90;50.20;;;;;;5012294;28;20030;-81
2021/08/29 11:19:46;;;;;;;21.30;10.70;;;26.70;50.80;;;;;;5014565;28;20474;-80
2021/08/29 11:22:24;;;;;;;19.42;10.52;;;26.60;51.20;;;;;;5014234;28;20117;-83
2021/08/29 11:25:00;;;;;;;16.58;10.00;;;26.50;51.60;;;;;;5016085;28;20498;-81
2021/08/29 11:27:39;;;;;;;17.55;10.52;;;26.20;51.60;;;;;;5011913;28;20021;-79
2021/08/29 11:30:10;;;;;;;23.90;11.18;;;26.10;52.60;;;;;;5005882;28;20514;-81
2021/08/29 11:32:45;;;;;;;16.90;10.63;;;26.00;52.70;;;;;;5012673;28;20498;-82
2021/08/29 11:35:21;;;;;;;23.13;10.40;;;25.90;52.90;;;;;;5014194;28;20030;-84
2021/08/29 11:38:12;;;;;;;15.18;11.15;;;25.90;53.10;;;;;;5014057;28;20551;-85
2021/08/29 11:40:54;;;;;;;16.20;10.13;;;26.00;52.90;;;;;;5017060;28;20040;-82
2021/08/29 11:43:40;;;;;;;16.35;10.05;;;26.20;52.90;;;;;;5002343;28;20069;-83
2021/08/29 11:46:16;;;;;;;18.00;10.65;;;26.50;52.40;;;;;;5014591;28;20030;-82
2021/08/29 11:48:57;;;;;;;15.10;9.57;;;26.70;52.20;;;;;;5014159;28;20021;-84
2021/08/29 11:51:35;;;;;;;12.70;9.43;;;26.80;51.80;;;;;;5012990;28;20038;-84
2021/08/29 11:54:06;;;;;;;16.67;10.95;;;26.80;51.80;;;;;;5014661;28;20021;-82
2021/08/29 11:56:34;;;;;;;16.08;10.23;;;26.70;52.40;;;;;;5013767;28;20029;-81
2021/08/29 11:59:02;;;;;;;15.75;10.27;;;26.80;52.20;;;;;;5013518;28;20018;-83
2021/08/29 12:01:32;;;;;;;14.40;10.43;;;26.90;52.10;;;;;;5011548;28;20026;-83
2021/08/29 12:04:00;;;;;;;13.07;9.77;;;26.80;52.00;;;;;;5013537;28;20029;-81
2021/08/29 12:06:33;;;;;;;14.85;11.00;;;26.80;52.10;;;;;;5012912;28;20148;-82
2021/08/29 12:09:26;;;;;;;14.20;9.90;;;26.60;52.30;;;;;;5012982;28;20087;-82
2021/08/29 12:11:52;;;;;;;17.40;10.18;;;26.40;53.30;;;;;;5012807;28;20026;-83
2021/08/29 12:14:27;;;;;;;13.00;9.55;;;26.30;53.10;;;;;;5013448;28;20026;-86
2021/08/29 12:16:58;;;;;;;20.38;11.00;;;26.30;53.40;;;;;;5012269;28;20018;-90
2021/08/29 12:19:28;;;;;;;16.63;10.98;;;26.30;53.80;;;;;;5014211;28;20052;-82
2021/08/29 12:21:56;;;;;;;16.70;10.88;;;26.20;54.10;;;;;;5002948;28;20495;-88
2021/08/29 12:24:23;;;;;;;;;;;26.20;54.00;;;;;;5012989;28;20061;-88
2021/08/29 12:27:04;;;;;;;12.35;9.95;;;26.00;53.50;;;;;;5003543;28;19906;-85
2021/08/29 12:29:31;;;;;;;16.10;10.43;;;25.90;54.00;;;;;;5014107;28;20101;-87
2021/08/29 12:32:11;;;;;;;18.15;10.77;;;25.70;54.70;;;;;;5028382;28;20006;-87
2021/08/29 12:34:37;;;;;;;16.70;10.88;;;25.70;55.10;;;;;;5013269;28;20037;-86
2021/08/29 12:37:05;;;;;;;13.77;9.80;;;25.70;55.00;;;;;;5013908;28;20029;-87
2021/08/29 12:39:30;;;;;;;21.25;11.50;;;25.60;54.90;;;;;;5012278;28;20033;-87